createdAt,value
2023-04-21T00:00:46.086Z,94.13
2023-04-21T00:01:48.686Z,94.21
2023-04-21T00:02:51.786Z,94.14
2023-04-21T00:03:55.523Z,94.02
2023-04-21T00:04:57.768Z,94.43
2023-04-21T00:06:00.302Z,94.80
2023-04-21T00:07:03.353Z,94.39
2023-04-21T00:08:06.436Z,94.07
2023-04-21T00:09:08.109Z,93.86
2023-04-21T00:10:11.797Z,93.54
2023-04-21T00:11:15.098Z,93.50
2023-04-21T00:12:17.610Z,93.87
2023-04-21T00:13:19.272Z,93.75
2023-04-21T00:14:21.778Z,93.65
2023-04-21T00:15:23.372Z,93.68
2023-04-21T00:16:26.145Z,93.30
2023-04-21T00:17:27.940Z,93.24
2023-04-21T00:18:32.167Z,93.56
2023-04-21T00:19:35.280Z,93.77
2023-04-21T00:20:39.259Z,94.04
2023-04-21T00:21:40.878Z,94.47
2023-04-21T00:22:43.703Z,95.13
2023-04-21T00:23:47.272Z,95.50
2023-04-21T00:24:49.764Z,95.33
2023-04-21T00:25:52.325Z,95.59
2023-04-21T00:26:55.193Z,95.31
2023-04-21T00:27:57.005Z,95.51
2023-04-21T00:28:59.471Z,95.53
2023-04-21T00:30:01.030Z,95.28
2023-04-21T00:31:03.556Z,96.15
2023-04-21T00:32:08.447Z,95.83
2023-04-21T00:33:11.013Z,95.19
2023-04-21T00:34:13.854Z,94.25
2023-04-21T00:35:16.375Z,94.15
2023-04-21T00:36:17.876Z,94.51
2023-04-21T00:37:20.398Z,94.47
2023-04-21T00:38:21.969Z,94.35
2023-04-21T00:39:24.419Z,94.59
2023-04-21T00:40:25.966Z,94.73
2023-04-21T00:41:29.522Z,95.46
2023-04-21T00:42:31.654Z,94.97
2023-04-21T00:43:34.068Z,94.69
2023-04-21T00:44:35.591Z,94.54
2023-04-21T00:45:38.035Z,94.49
2023-04-21T00:46:39.647Z,94.69
2023-04-21T00:47:42.157Z,94.93
2023-04-21T00:48:43.657Z,94.65
2023-04-21T00:49:48.160Z,94.29
2023-04-21T00:50:49.834Z,94.64
2023-04-21T00:51:53.685Z,94.84
2023-04-21T00:52:56.267Z,94.60
2023-04-21T00:53:58.816Z,94.38
2023-04-21T00:55:00.903Z,94.57
2023-04-21T00:56:03.549Z,94.01
2023-04-21T00:57:07.747Z,94.18
2023-04-21T00:58:10.215Z,93.86
2023-04-21T00:59:11.736Z,93.94
2023-04-21T01:00:15.349Z,93.68
2023-04-21T01:01:17.470Z,93.50
2023-04-21T01:02:20.952Z,93.81
2023-04-21T01:03:22.765Z,93.99
2023-04-21T01:04:25.719Z,94.03
2023-04-21T01:05:28.621Z,94.20
2023-04-21T01:06:32.392Z,94.55
2023-04-21T01:07:33.988Z,95.45
2023-04-21T01:08:37.028Z,95.86
2023-04-21T01:09:38.728Z,96.99
2023-04-21T01:10:41.224Z,97.28
2023-04-21T01:11:42.756Z,96.90
2023-04-21T01:12:46.576Z,97.15
2023-04-21T01:13:48.086Z,96.81
2023-04-21T01:14:51.016Z,96.30
2023-04-21T01:15:52.550Z,95.88
2023-04-21T01:16:55.202Z,95.65
2023-04-21T01:17:58.210Z,95.72
2023-04-21T01:19:01.509Z,96.14
2023-04-21T01:20:08.577Z,96.26
2023-04-21T01:21:13.090Z,96.02
2023-04-21T01:22:16.780Z,96.08
2023-04-21T01:23:21.045Z,96.28
2023-04-21T01:24:22.782Z,96.52
2023-04-21T01:25:28.239Z,95.87
2023-04-21T01:26:29.718Z,95.50
2023-04-21T01:27:32.388Z,95.32
2023-04-21T01:28:33.941Z,94.77
2023-04-21T01:29:36.448Z,94.52
2023-04-21T01:30:37.985Z,94.78
2023-04-21T01:31:40.549Z,94.47
2023-04-21T01:32:42.201Z,94.15
2023-04-21T01:33:44.934Z,94.24
2023-04-21T01:34:47.812Z,94.20
2023-04-21T01:35:50.635Z,93.95
2023-04-21T01:36:52.153Z,93.64
2023-04-21T01:37:56.032Z,93.59
2023-04-21T01:38:57.948Z,93.74
2023-04-21T01:40:04.845Z,93.73
2023-04-21T01:41:06.501Z,94.39
2023-04-21T01:42:09.487Z,96.33
2023-04-21T01:43:11.356Z,97.56
2023-04-21T01:44:13.810Z,97.95
2023-04-21T01:45:15.319Z,97.35
2023-04-21T01:46:20.384Z,97.26
2023-04-21T01:47:25.151Z,97.56
2023-04-21T01:48:27.812Z,98.19
2023-04-21T01:49:29.376Z,97.42
2023-04-21T01:50:32.310Z,97.89
2023-04-21T01:51:34.048Z,98.00
2023-04-21T01:52:36.554Z,98.21
2023-04-21T01:53:39.421Z,98.60
2023-04-21T01:54:41.911Z,99.07
2023-04-21T01:55:43.514Z,99.31
2023-04-21T01:56:46.011Z,99.86
2023-04-21T01:57:47.586Z,100.00
2023-04-21T01:58:50.313Z,100.00
2023-04-21T01:59:51.850Z,100.00
2023-04-21T02:00:55.146Z,100.00
2023-04-21T02:01:57.057Z,100.00
2023-04-21T02:02:59.806Z,99.52
2023-04-21T02:04:02.617Z,99.77
2023-04-21T02:05:06.070Z,100.00
2023-04-21T02:06:07.966Z,100.00
2023-04-21T02:07:10.434Z,100.00
2023-04-21T02:08:12.939Z,99.74
2023-04-21T02:09:16.869Z,100.00
2023-04-21T02:10:18.514Z,100.00
2023-04-21T02:11:20.968Z,100.00
2023-04-21T02:12:22.495Z,100.00
2023-04-21T02:13:25.294Z,100.00
2023-04-21T02:14:26.997Z,100.00
2023-04-21T02:15:29.620Z,100.00
2023-04-21T02:16:31.257Z,100.00
2023-04-21T02:17:34.052Z,100.00
2023-04-21T02:18:39.867Z,100.00
2023-04-21T02:19:42.309Z,100.00
2023-04-21T02:20:43.925Z,100.00
2023-04-21T02:21:46.394Z,100.00
2023-04-21T02:22:47.909Z,100.00
2023-04-21T02:23:51.047Z,100.00
2023-04-21T02:24:53.822Z,100.00
2023-04-21T02:25:56.259Z,99.69
2023-04-21T02:26:58.819Z,99.62
2023-04-21T02:28:01.238Z,99.84
2023-04-21T02:29:02.977Z,99.56
2023-04-21T02:30:06.957Z,100.00
2023-04-21T02:31:08.678Z,99.89
2023-04-21T02:32:22.357Z,100.00
2023-04-21T02:33:27.390Z,99.56
2023-04-21T02:34:30.112Z,99.74
2023-04-21T02:35:33.651Z,99.34
2023-04-21T02:36:36.391Z,99.52
2023-04-21T02:37:38.039Z,99.36
2023-04-21T02:38:40.645Z,99.63
2023-04-21T02:39:43.673Z,98.94
2023-04-21T02:40:47.487Z,98.37
2023-04-21T02:41:48.999Z,97.91
2023-04-21T02:42:51.479Z,97.86
2023-04-21T02:43:52.951Z,97.83
2023-04-21T02:44:55.361Z,98.23
2023-04-21T02:45:56.923Z,97.96
2023-04-21T02:46:59.538Z,97.83
2023-04-21T02:48:01.251Z,97.42
2023-04-21T02:49:03.870Z,97.21
2023-04-21T02:50:06.701Z,96.92
2023-04-21T02:51:12.698Z,96.45
2023-04-21T02:52:14.241Z,96.15
2023-04-21T02:53:17.347Z,96.05
2023-04-21T02:54:19.067Z,96.27
2023-04-21T02:55:22.505Z,96.47
2023-04-21T02:56:25.534Z,96.46
2023-04-21T02:57:28.087Z,96.49
2023-04-21T02:58:29.558Z,96.61
2023-04-21T02:59:32.114Z,96.92
2023-04-21T03:00:33.676Z,96.88
2023-04-21T03:01:36.460Z,96.96
2023-04-21T03:02:38.440Z,97.03
2023-04-21T03:03:41.583Z,96.79
2023-04-21T03:04:43.119Z,96.44
2023-04-21T03:05:45.864Z,96.68
2023-04-21T03:06:47.373Z,96.37
2023-04-21T03:07:49.807Z,96.12
2023-04-21T03:08:52.252Z,96.08
2023-04-21T03:09:54.775Z,96.09
2023-04-21T03:10:56.238Z,96.36
2023-04-21T03:12:00.048Z,96.32
2023-04-21T03:13:01.805Z,96.34
2023-04-21T03:14:04.533Z,96.71
2023-04-21T03:15:06.953Z,96.27
2023-04-21T03:16:09.813Z,96.38
2023-04-21T03:17:11.471Z,96.19
2023-04-21T03:18:14.140Z,96.02
2023-04-21T03:19:15.654Z,95.69
2023-04-21T03:20:18.153Z,95.43
2023-04-21T03:21:20.290Z,95.84
2023-04-21T03:22:22.736Z,95.68
2023-04-21T03:23:24.269Z,96.36
2023-04-21T03:24:26.834Z,96.67
2023-04-21T03:25:28.698Z,96.89
2023-04-21T03:26:31.197Z,97.45
2023-04-21T03:27:34.334Z,98.42
2023-04-21T03:28:37.031Z,98.14
2023-04-21T03:29:38.678Z,98.29
2023-04-21T03:30:41.163Z,97.69
2023-04-21T03:31:42.726Z,97.42
2023-04-21T03:32:45.368Z,97.52
2023-04-21T03:33:46.862Z,97.71
2023-04-21T03:34:50.224Z,96.99
2023-04-21T03:35:51.725Z,96.86
2023-04-21T03:36:54.255Z,98.50
2023-04-21T03:37:55.747Z,100.00
2023-04-21T03:39:09.089Z,100.00
2023-04-21T03:40:14.692Z,100.00
2023-04-21T03:41:17.256Z,100.00
2023-04-21T03:42:18.802Z,100.00
2023-04-21T03:43:22.831Z,100.00
2023-04-21T03:44:25.770Z,100.00
2023-04-21T03:45:28.215Z,100.00
2023-04-21T03:46:29.959Z,100.00
2023-04-21T03:47:32.843Z,100.00
2023-04-21T03:48:34.560Z,100.00
2023-04-21T03:49:37.180Z,100.00
2023-04-21T03:50:38.987Z,100.00
2023-04-21T03:51:41.419Z,100.00
2023-04-21T03:52:42.962Z,100.00
2023-04-21T03:53:45.403Z,100.00
2023-04-21T03:54:47.088Z,100.00
2023-04-21T03:55:51.074Z,100.00
2023-04-21T03:56:52.647Z,100.00
2023-04-21T03:57:55.439Z,100.00
2023-04-21T03:58:58.410Z,99.26
2023-04-21T04:00:00.929Z,98.85
2023-04-21T04:01:02.512Z,98.56
2023-04-21T04:02:05.556Z,98.32
2023-04-21T04:03:07.542Z,97.74
2023-04-21T04:04:10.492Z,97.75
2023-04-21T04:05:12.395Z,97.36
2023-04-21T04:06:15.000Z,97.56
2023-04-21T04:07:17.622Z,97.38
2023-04-21T04:08:20.790Z,96.79
2023-04-21T04:09:22.420Z,96.44
2023-04-21T04:10:25.286Z,96.09
2023-04-21T04:11:26.789Z,95.75
2023-04-21T04:12:29.447Z,95.99
2023-04-21T04:13:31.106Z,95.97
2023-04-21T04:14:35.160Z,95.93
2023-04-21T04:15:37.980Z,96.20
2023-04-21T04:16:39.611Z,95.88
2023-04-21T04:17:42.128Z,96.07
2023-04-21T04:18:43.800Z,96.32
2023-04-21T04:19:46.319Z,97.45
2023-04-21T04:20:48.004Z,97.20
2023-04-21T04:21:50.487Z,96.90
2023-04-21T04:22:51.982Z,97.35
2023-04-21T04:23:54.459Z,97.86
2023-04-21T04:24:57.302Z,98.06
2023-04-21T04:26:01.631Z,98.07
2023-04-21T04:27:03.741Z,98.10
2023-04-21T04:28:07.359Z,98.58
2023-04-21T04:29:10.536Z,98.94
2023-04-21T04:30:14.741Z,98.74
2023-04-21T04:31:17.595Z,99.27
2023-04-21T04:32:20.813Z,98.62
2023-04-21T04:33:22.631Z,98.55
2023-04-21T04:34:25.232Z,98.29
2023-04-21T04:35:26.970Z,98.24
2023-04-21T04:36:29.477Z,98.31
2023-04-21T04:37:34.570Z,98.76
2023-04-21T04:38:37.544Z,99.23
2023-04-21T04:39:39.348Z,99.09
2023-04-21T04:40:42.556Z,99.38
2023-04-21T04:41:44.074Z,99.70
2023-04-21T04:42:47.008Z,99.65
2023-04-21T04:43:48.553Z,99.75
2023-04-21T04:44:54.106Z,99.46
2023-04-21T04:45:57.374Z,99.69
2023-04-21T04:46:59.858Z,99.18
2023-04-21T04:48:01.542Z,99.01
2023-04-21T04:49:04.667Z,98.83
2023-04-21T04:50:07.246Z,98.96
2023-04-21T04:51:09.759Z,98.77
2023-04-21T04:52:11.353Z,98.43
2023-04-21T04:53:13.876Z,98.04
2023-04-21T04:54:15.333Z,98.71
2023-04-21T04:55:18.735Z,98.78
2023-04-21T04:56:20.362Z,99.22
2023-04-21T04:57:23.341Z,99.07
2023-04-21T04:58:24.904Z,99.03
2023-04-21T04:59:29.039Z,98.86
2023-04-21T05:00:31.849Z,98.83
2023-04-21T05:01:35.948Z,98.23
2023-04-21T05:02:38.145Z,98.29
2023-04-21T05:03:40.817Z,98.22
2023-04-21T05:04:42.477Z,97.64
2023-04-21T05:05:46.050Z,97.08
2023-04-21T05:06:47.824Z,97.05
2023-04-21T05:07:50.342Z,96.77
2023-04-21T05:08:51.929Z,97.24
2023-04-21T05:09:54.521Z,97.31
2023-04-21T05:10:56.114Z,98.81
2023-04-21T05:11:58.903Z,100.00
2023-04-21T05:13:00.698Z,100.00
2023-04-21T05:14:03.208Z,100.00
2023-04-21T05:15:05.822Z,99.48
2023-04-21T05:16:11.340Z,99.95
2023-04-21T05:17:14.341Z,99.22
2023-04-21T05:18:16.849Z,99.38
2023-04-21T05:19:18.836Z,99.83
2023-04-21T05:20:21.708Z,100.00
2023-04-21T05:21:25.323Z,100.00
2023-04-21T05:22:27.900Z,100.00
2023-04-21T05:23:29.473Z,100.00
2023-04-21T05:24:31.963Z,99.36
2023-04-21T05:25:33.568Z,98.18
2023-04-21T05:26:36.008Z,97.26
2023-04-21T05:27:37.556Z,96.42
2023-04-21T05:28:39.971Z,96.61
2023-04-21T05:29:41.462Z,96.24
2023-04-21T05:30:43.954Z,97.02
2023-04-21T05:31:45.798Z,97.46
2023-04-21T05:32:49.820Z,97.75
2023-04-21T05:33:51.872Z,97.17
2023-04-21T05:34:54.503Z,97.27
2023-04-21T05:35:55.965Z,97.38
2023-04-21T05:36:58.609Z,97.15
2023-04-21T05:38:00.126Z,97.02
2023-04-21T05:39:02.615Z,97.45
2023-04-21T05:40:04.603Z,97.66
2023-04-21T05:41:07.404Z,97.42
2023-04-21T05:42:11.032Z,97.72
2023-04-21T05:43:12.492Z,98.85
2023-04-21T05:44:18.083Z,98.46
2023-04-21T05:45:20.452Z,97.78
2023-04-21T05:46:23.239Z,97.05
2023-04-21T05:47:24.884Z,95.64
2023-04-21T05:48:29.306Z,96.27
2023-04-21T05:49:30.912Z,96.38
2023-04-21T05:50:35.483Z,96.50
2023-04-21T05:51:37.188Z,97.92
2023-04-21T05:52:39.954Z,100.00
2023-04-21T05:53:42.786Z,100.00
2023-04-21T05:54:45.471Z,100.00
2023-04-21T05:55:47.286Z,100.00
2023-04-21T05:56:49.893Z,100.00
2023-04-21T05:57:51.448Z,100.00
2023-04-21T05:58:53.895Z,100.00
2023-04-21T05:59:55.595Z,100.00
2023-04-21T06:00:58.110Z,100.00
2023-04-21T06:02:00.663Z,100.00
2023-04-21T06:03:02.791Z,100.00
2023-04-21T06:04:07.125Z,100.00
2023-04-21T06:05:09.205Z,100.00
2023-04-21T06:06:13.271Z,100.00
2023-04-21T06:07:16.908Z,100.00
2023-04-21T06:08:20.879Z,100.00
2023-04-21T06:09:22.611Z,100.00
2023-04-21T06:10:25.420Z,100.00
2023-04-21T06:11:27.194Z,100.00
2023-04-21T06:12:29.636Z,100.00
2023-04-21T06:13:31.103Z,100.00
2023-04-21T06:14:36.303Z,100.00
2023-04-21T06:15:37.870Z,100.00
2023-04-21T06:16:40.726Z,100.00
2023-04-21T06:17:42.502Z,100.00
2023-04-21T06:18:45.113Z,100.00
2023-04-21T06:19:53.127Z,100.00
2023-04-21T06:20:57.053Z,100.00
2023-04-21T06:21:58.598Z,100.00
2023-04-21T06:23:01.074Z,100.00
2023-04-21T06:24:02.595Z,100.00
2023-04-21T06:25:05.731Z,100.00
2023-04-21T06:26:07.427Z,100.00
2023-04-21T06:27:13.554Z,100.00
2023-04-21T06:28:15.090Z,100.00
2023-04-21T06:29:17.664Z,100.00
2023-04-21T06:30:19.312Z,100.00
2023-04-21T06:31:21.958Z,100.00
2023-04-21T06:32:23.677Z,100.00
2023-04-21T06:33:26.748Z,100.00
2023-04-21T06:34:28.269Z,100.00
2023-04-21T06:35:32.309Z,100.00
2023-04-21T06:36:33.825Z,100.00
2023-04-21T06:37:36.382Z,100.00
2023-04-21T06:38:40.023Z,100.00
2023-04-21T06:39:42.704Z,100.00
2023-04-21T06:40:44.489Z,100.00
2023-04-21T06:41:47.383Z,100.00
2023-04-21T06:42:48.870Z,100.00
2023-04-21T06:43:51.890Z,100.00
2023-04-21T06:44:53.508Z,100.00
2023-04-21T06:45:56.009Z,100.00
2023-04-21T06:46:58.150Z,100.00
2023-04-21T06:48:00.788Z,100.00
2023-04-21T06:49:02.598Z,100.00
2023-04-21T06:50:06.020Z,100.00
2023-04-21T06:51:10.222Z,100.00
2023-04-21T06:52:12.690Z,100.00
2023-04-21T06:53:14.259Z,100.00
2023-04-21T06:54:16.932Z,100.00
2023-04-21T06:55:18.883Z,100.00
2023-04-21T06:56:21.846Z,100.00
2023-04-21T06:57:27.128Z,100.00
2023-04-21T06:58:28.678Z,100.00
2023-04-21T06:59:31.623Z,100.00
2023-04-21T07:00:33.282Z,100.00
2023-04-21T07:01:35.829Z,100.00
2023-04-21T07:02:37.501Z,100.00
2023-04-21T07:03:40.154Z,100.00
2023-04-21T07:04:43.267Z,100.00
2023-04-21T07:05:45.129Z,100.00
2023-04-21T07:06:49.597Z,99.47
2023-04-21T07:07:51.227Z,99.34
2023-04-21T07:08:53.824Z,98.68
2023-04-21T07:09:55.477Z,97.82
2023-04-21T07:10:58.064Z,97.52
2023-04-21T07:11:59.741Z,97.17
2023-04-21T07:13:02.418Z,96.77
2023-04-21T07:14:04.186Z,96.80
2023-04-21T07:15:08.509Z,96.17
2023-04-21T07:16:10.316Z,95.81
2023-04-21T07:17:13.003Z,95.07
2023-04-21T07:18:15.717Z,95.45
2023-04-21T07:19:17.672Z,94.49
2023-04-21T07:20:20.816Z,93.86
2023-04-21T07:21:22.437Z,93.87
2023-04-21T07:22:26.541Z,93.61
2023-04-21T07:23:29.279Z,93.92
2023-04-21T07:24:32.077Z,94.06
2023-04-21T07:25:34.976Z,93.79
2023-04-21T07:26:37.931Z,93.37
2023-04-21T07:27:39.671Z,92.85
2023-04-21T07:28:42.239Z,92.33
2023-04-21T07:29:43.853Z,92.61
2023-04-21T07:30:46.492Z,91.67
2023-04-21T07:31:48.453Z,91.47
2023-04-21T07:32:52.251Z,91.75
2023-04-21T07:33:54.867Z,90.51
2023-04-21T07:34:56.521Z,90.30
2023-04-21T07:35:59.226Z,89.86
2023-04-21T07:37:01.081Z,89.86
2023-04-21T07:38:04.899Z,90.33
2023-04-21T07:39:06.892Z,89.81
2023-04-21T07:40:10.303Z,89.89
2023-04-21T07:41:13.656Z,89.83
2023-04-21T07:42:15.281Z,88.97
2023-04-21T07:43:19.638Z,89.40
2023-04-21T07:44:21.461Z,88.41
2023-04-21T07:45:24.155Z,88.42
2023-04-21T07:46:30.465Z,86.40
2023-04-21T07:47:32.972Z,85.70
2023-04-21T07:48:35.554Z,85.67
2023-04-21T07:49:38.372Z,85.80
2023-04-21T07:50:42.546Z,85.91
2023-04-21T07:51:44.310Z,85.30
2023-04-21T07:52:48.075Z,85.54
2023-04-21T07:53:51.727Z,86.42
2023-04-21T07:54:54.536Z,86.07
2023-04-21T07:55:57.284Z,85.10
2023-04-21T07:56:59.041Z,85.09
2023-04-21T07:58:01.687Z,85.44
2023-04-21T07:59:03.363Z,84.12
2023-04-21T08:00:07.211Z,84.51
2023-04-21T08:01:09.033Z,83.72
2023-04-21T08:02:11.900Z,83.94
2023-04-21T08:03:13.782Z,83.45
2023-04-21T08:04:16.550Z,83.63
2023-04-21T08:05:19.990Z,82.58
2023-04-21T08:06:21.762Z,82.66
2023-04-21T08:07:24.745Z,81.52
2023-04-21T08:08:26.668Z,81.15
2023-04-21T08:09:30.667Z,81.03
2023-04-21T08:10:32.277Z,80.88
2023-04-21T08:11:34.773Z,79.87
2023-04-21T08:12:36.833Z,79.96
2023-04-21T08:13:39.885Z,78.98
2023-04-21T08:14:41.535Z,79.70
2023-04-21T08:15:44.250Z,79.76
2023-04-21T08:16:47.450Z,79.38
2023-04-21T08:17:50.452Z,78.64
2023-04-21T08:18:51.993Z,78.30
2023-04-21T08:19:54.965Z,78.10
2023-04-21T08:20:58.076Z,77.58
2023-04-21T08:21:59.708Z,77.93
2023-04-21T08:23:14.751Z,77.24
2023-04-21T08:24:17.735Z,76.66
2023-04-21T08:25:21.126Z,77.01
2023-04-21T08:26:25.213Z,77.79
2023-04-21T08:27:27.111Z,76.93
2023-04-21T08:28:29.756Z,77.20
2023-04-21T08:29:31.921Z,77.65
2023-04-21T08:30:34.727Z,77.63
2023-04-21T08:31:36.508Z,77.71
2023-04-21T08:32:39.130Z,77.34
2023-04-21T08:33:49.808Z,77.53
2023-04-21T08:35:08.680Z,77.20
2023-04-21T08:36:21.934Z,76.98
2023-04-21T08:37:31.701Z,76.03
2023-04-21T08:38:33.513Z,75.89
2023-04-21T08:39:36.109Z,75.75
2023-04-21T08:40:39.536Z,75.29
2023-04-21T08:41:42.465Z,74.66
2023-04-21T08:42:47.898Z,74.53
2023-04-21T08:43:50.977Z,74.24
2023-04-21T08:44:54.688Z,74.60
2023-04-21T08:45:57.971Z,74.51
2023-04-21T08:47:04.293Z,74.06
2023-04-21T08:48:07.390Z,74.23
2023-04-21T08:49:11.145Z,73.81
2023-04-21T08:50:15.631Z,75.14
2023-04-21T08:51:22.358Z,75.09
2023-04-21T08:52:24.984Z,75.29
2023-04-21T08:53:27.010Z,74.49
2023-04-21T08:54:30.059Z,74.16
2023-04-21T08:55:34.183Z,74.17
2023-04-21T08:56:38.359Z,73.08
2023-04-21T08:57:41.133Z,72.61
2023-04-21T08:58:42.766Z,70.86
2023-04-21T08:59:45.791Z,71.18
2023-04-21T09:00:47.711Z,72.34
2023-04-21T09:02:12.964Z,70.09
2023-04-21T09:03:26.378Z,69.37
2023-04-21T09:04:30.524Z,68.94
2023-04-21T09:05:36.043Z,69.19
2023-04-21T09:06:43.411Z,69.47
2023-04-21T09:07:46.426Z,68.66
2023-04-21T09:08:56.180Z,69.03
2023-04-21T09:10:25.745Z,68.68
2023-04-21T09:13:37.065Z,68.81
2023-04-21T09:15:01.007Z,68.69
2023-04-21T09:16:23.805Z,69.10
2023-04-21T09:17:46.747Z,68.39
2023-04-21T09:19:15.569Z,69.21
2023-04-21T09:20:38.365Z,68.77
2023-04-21T09:22:01.390Z,68.98
2023-04-21T09:23:23.983Z,68.79
2023-04-21T09:24:48.019Z,68.66
2023-04-21T09:26:11.127Z,67.16
2023-04-21T09:27:37.099Z,68.37
2023-04-21T09:28:59.846Z,70.51
2023-04-21T09:30:23.004Z,69.96
2023-04-21T09:31:46.288Z,66.82
2023-04-21T09:33:20.206Z,67.56
2023-04-21T09:34:51.072Z,66.90
2023-04-21T09:36:20.780Z,67.37
2023-04-21T09:37:45.384Z,66.84
2023-04-21T09:40:35.120Z,65.72
2023-04-21T09:41:58.931Z,65.99
2023-04-21T09:43:23.009Z,65.47
2023-04-21T09:44:52.445Z,65.65
2023-04-21T09:46:20.364Z,66.19
2023-04-21T09:47:43.703Z,66.08
2023-04-21T09:49:07.074Z,65.35
2023-04-21T09:52:17.487Z,65.25
2023-04-21T09:53:41.862Z,65.75
2023-04-21T09:55:08.147Z,64.80
2023-04-21T09:56:34.518Z,65.97
2023-04-21T09:58:00.491Z,64.77
2023-04-21T09:59:28.299Z,66.14
2023-04-21T10:00:52.913Z,66.23
2023-04-21T10:02:16.224Z,63.78
2023-04-21T10:03:41.130Z,64.08
2023-04-21T10:05:06.287Z,62.71
2023-04-21T10:06:29.608Z,62.17
2023-04-21T10:07:52.128Z,62.31
2023-04-21T10:09:17.534Z,62.67
2023-04-21T10:10:40.714Z,62.41
2023-04-21T10:12:05.036Z,61.96
2023-04-21T10:13:29.357Z,61.78
2023-04-21T10:14:54.210Z,61.40
2023-04-21T10:16:19.833Z,61.11
2023-04-21T10:17:42.563Z,60.41
2023-04-21T10:19:24.349Z,59.96
2023-04-21T10:20:57.369Z,59.57
2023-04-21T10:22:30.315Z,59.25
2023-04-21T10:23:55.578Z,60.15
2023-04-21T10:25:18.430Z,59.90
2023-04-21T10:26:41.014Z,60.18
2023-04-21T10:28:07.792Z,60.00
2023-04-21T10:29:43.765Z,58.31
2023-04-21T10:31:36.289Z,56.30
2023-04-21T10:33:08.284Z,54.00
2023-04-21T10:34:35.368Z,53.26
2023-04-21T10:36:03.207Z,52.25
2023-04-21T10:37:26.331Z,53.84
2023-04-21T10:38:56.607Z,52.46
2023-04-21T10:40:44.318Z,51.23
2023-04-21T10:42:20.785Z,51.92
2023-04-21T10:43:48.429Z,52.83
2023-04-21T10:45:13.251Z,53.24
2023-04-21T10:46:38.702Z,55.26
2023-04-21T10:48:04.066Z,56.45
2023-04-21T10:49:29.024Z,55.59
2023-04-21T10:50:51.586Z,55.59
2023-04-21T10:52:17.468Z,55.60
2023-04-21T10:53:44.908Z,54.79
2023-04-21T10:55:12.484Z,53.32
2023-04-21T10:56:37.476Z,53.75
2023-04-21T10:58:03.777Z,54.66
2023-04-21T10:59:27.787Z,52.74
2023-04-21T11:00:55.109Z,54.47
2023-04-21T11:02:20.431Z,57.27
2023-04-21T11:03:43.397Z,59.09
2023-04-21T11:05:07.518Z,58.19
2023-04-21T11:06:30.257Z,57.11
2023-04-21T11:07:51.974Z,55.86
2023-04-21T11:09:17.115Z,52.42
2023-04-21T11:10:47.473Z,52.71
2023-04-21T11:12:11.865Z,53.42
2023-04-21T11:13:35.071Z,53.94
2023-04-21T11:14:57.382Z,52.86
2023-04-21T11:16:23.223Z,51.73
2023-04-21T11:17:48.129Z,51.02
2023-04-21T11:19:11.003Z,50.69
2023-04-21T11:20:33.782Z,51.31
2023-04-21T11:21:56.446Z,51.31
2023-04-21T11:23:19.647Z,49.37
2023-04-21T11:24:46.248Z,51.45
2023-04-21T11:26:07.861Z,51.01
2023-04-21T11:27:31.512Z,50.21
2023-04-21T11:28:54.140Z,49.21
2023-04-21T11:30:16.806Z,49.33
2023-04-21T11:31:41.361Z,48.98
2023-04-21T11:33:05.763Z,47.93
2023-04-21T11:34:28.804Z,47.92
2023-04-21T11:35:51.662Z,46.27
2023-04-21T11:37:17.547Z,48.55
2023-04-21T11:38:41.196Z,47.37
2023-04-21T11:40:07.782Z,45.96
2023-04-21T11:41:30.814Z,44.95
2023-04-21T11:42:53.706Z,46.61
2023-04-21T11:44:33.103Z,46.65
2023-04-21T11:45:55.837Z,48.23
2023-04-21T11:47:19.900Z,47.33
2023-04-21T11:48:44.604Z,49.10
2023-04-21T11:50:08.163Z,47.46
2023-04-21T11:51:34.864Z,46.89
2023-04-21T11:53:03.128Z,47.63
2023-04-21T11:54:26.142Z,47.27
2023-04-21T11:55:49.367Z,50.25
2023-04-21T11:57:12.211Z,50.21
2023-04-21T11:58:35.446Z,49.72
2023-04-21T11:59:59.968Z,47.98
2023-04-21T12:01:23.252Z,48.20
2023-04-21T12:02:55.675Z,46.96
2023-04-21T12:04:22.068Z,47.31
2023-04-21T12:05:46.853Z,48.81
2023-04-21T12:07:09.606Z,48.24
2023-04-21T12:08:32.801Z,48.86
2023-04-21T12:09:55.421Z,45.05
2023-04-21T12:11:18.253Z,46.48
2023-04-21T12:12:41.812Z,48.62
2023-04-21T12:14:04.371Z,47.17
2023-04-21T12:15:27.258Z,45.17
2023-04-21T12:16:51.701Z,44.91
2023-04-21T12:18:15.027Z,44.47
2023-04-21T12:19:41.123Z,42.58
2023-04-21T12:21:04.333Z,44.57
2023-04-21T12:22:27.145Z,46.01
2023-04-21T12:23:50.130Z,44.07
2023-04-21T12:25:12.943Z,44.02
2023-04-21T12:26:35.512Z,44.10
2023-04-21T12:27:59.779Z,43.92
2023-04-21T12:29:01.519Z,43.95
2023-04-21T12:30:05.237Z,46.47
2023-04-21T12:31:07.074Z,46.06
2023-04-21T12:32:11.106Z,44.03
2023-04-21T12:33:13.241Z,45.45
2023-04-21T12:34:16.187Z,43.41
2023-04-21T12:35:19.270Z,43.31
2023-04-21T12:36:21.916Z,43.92
2023-04-21T12:37:24.429Z,42.23
2023-04-21T12:38:26.167Z,43.44
2023-04-21T12:39:29.366Z,44.07
2023-04-21T12:40:31.310Z,44.29
2023-04-21T12:41:35.294Z,43.59
2023-04-21T12:42:38.483Z,44.27
2023-04-21T12:43:40.269Z,43.88
2023-04-21T12:44:42.755Z,43.00
2023-04-21T12:45:44.627Z,42.99
2023-04-21T12:46:49.180Z,42.68
2023-04-21T12:47:50.878Z,42.06
2023-04-21T12:48:53.640Z,41.27
2023-04-21T12:49:55.469Z,41.60
2023-04-21T12:50:59.741Z,42.58
2023-04-21T12:52:02.247Z,44.01
2023-04-21T12:53:05.153Z,42.42
2023-04-21T12:54:07.836Z,41.39
2023-04-21T12:55:10.768Z,42.38
2023-04-21T12:56:16.335Z,42.85
2023-04-21T12:57:18.133Z,42.51
2023-04-21T12:58:20.983Z,42.96
2023-04-21T12:59:22.698Z,44.26
2023-04-21T13:00:25.526Z,44.60
2023-04-21T13:01:28.540Z,45.25
2023-04-21T13:02:31.226Z,47.10
2023-04-21T13:03:34.225Z,47.09
2023-04-21T13:04:36.630Z,47.58
2023-04-21T13:05:39.349Z,47.40
2023-04-21T13:06:43.467Z,46.71
2023-04-21T13:07:45.353Z,46.51
2023-04-21T13:08:47.987Z,45.43
2023-04-21T13:09:52.048Z,45.62
2023-04-21T13:10:55.256Z,44.64
2023-04-21T13:11:57.116Z,43.59
2023-04-21T13:12:59.832Z,44.67
2023-04-21T13:14:04.172Z,44.26
2023-04-21T13:15:08.074Z,44.18
2023-04-21T13:16:09.758Z,42.93
2023-04-21T13:17:15.281Z,42.39
2023-04-21T13:18:17.496Z,42.99
2023-04-21T13:19:29.754Z,44.75
2023-04-21T13:20:33.890Z,44.94
2023-04-21T13:21:35.559Z,45.02
2023-04-21T13:22:39.715Z,46.03
2023-04-21T13:23:42.002Z,45.64
2023-04-21T13:24:47.159Z,44.63
2023-04-21T13:25:50.763Z,44.78
2023-04-21T13:26:53.452Z,43.74
2023-04-21T13:27:56.195Z,43.50
2023-04-21T13:28:57.857Z,43.90
2023-04-21T13:30:00.389Z,44.55
2023-04-21T13:31:03.098Z,45.80
2023-04-21T13:32:06.783Z,45.15
2023-04-21T13:33:09.750Z,44.50
2023-04-21T13:34:11.476Z,44.03
2023-04-21T13:35:14.650Z,44.86
2023-04-21T13:36:16.734Z,45.44
2023-04-21T13:37:20.079Z,45.03
2023-04-21T13:38:23.090Z,44.19
2023-04-21T13:39:25.738Z,43.79
2023-04-21T13:40:27.445Z,43.67
2023-04-21T13:41:29.987Z,43.86
2023-04-21T13:42:36.368Z,44.40
2023-04-21T13:43:38.935Z,45.53
2023-04-21T13:44:40.711Z,46.70
2023-04-21T13:45:43.390Z,47.71
2023-04-21T13:46:46.806Z,46.92
2023-04-21T13:47:48.377Z,45.84
2023-04-21T13:48:51.761Z,45.09
2023-04-21T13:49:53.398Z,45.34
2023-04-21T13:50:56.099Z,44.39
2023-04-21T13:51:57.603Z,44.45
2023-04-21T13:53:00.456Z,45.52
2023-04-21T13:54:03.480Z,45.84
2023-04-21T13:55:07.380Z,45.51
2023-04-21T13:56:11.448Z,47.26
2023-04-21T13:57:14.189Z,45.42
2023-04-21T13:58:16.765Z,45.58
2023-04-21T13:59:21.039Z,45.34
2023-04-21T14:00:24.149Z,45.68
2023-04-21T14:01:26.719Z,46.35
2023-04-21T14:02:29.680Z,47.49
2023-04-21T14:03:31.608Z,47.06
2023-04-21T14:04:34.975Z,46.86
2023-04-21T14:05:37.225Z,46.92
2023-04-21T14:06:40.007Z,46.46
2023-04-21T14:07:42.895Z,46.87
2023-04-21T14:08:45.325Z,46.61
2023-04-21T14:09:50.321Z,46.47
2023-04-21T14:10:53.397Z,46.48
2023-04-21T14:11:55.432Z,46.94
2023-04-21T14:12:58.468Z,46.31
2023-04-21T14:15:10.103Z,46.64
2023-04-21T14:16:12.033Z,47.19
2023-04-21T14:17:16.609Z,47.26
2023-04-21T14:18:20.430Z,46.42
2023-04-21T14:19:25.330Z,45.72
2023-04-21T14:20:27.901Z,46.47
2023-04-21T14:21:29.825Z,47.32
2023-04-21T14:22:32.991Z,45.73
2023-04-21T14:23:34.760Z,46.20